sensor_id;sensor_type;location;lat;lon;timestamp;temperature;humidity
52415;DHT22;38340;52.964;6.086;2023-04-07T00:01:44;7.20;99.90
52415;DHT22;38340;52.964;6.086;2023-04-07T00:04:10;7.20;99.90
52415;DHT22;38340;52.964;6.086;2023-04-07T00:06:36;7.20;99.90
52415;DHT22;38340;52.964;6.086;2023-04-07T00:09:02;7.20;99.90
52415;DHT22;38340;52.964;6.086;2023-04-07T00:11:28;7.20;99.90
52415;DHT22;38340;52.964;6.086;2023-04-07T00:13:53;7.20;99.90
52415;DHT22;38340;52.964;6.086;2023-04-07T00:16:19;7.20;99.90
52415;DHT22;38340;52.964;6.086;2023-04-07T00:18:45;7.20;99.90
52415;DHT22;38340;52.964;6.086;2023-04-07T00:21:11;7.30;99.90
52415;DHT22;38340;52.964;6.086;2023-04-07T00:23:36;7.20;99.90
52415;DHT22;38340;52.964;6.086;2023-04-07T00:26:02;7.20;99.90
52415;DHT22;38340;52.964;6.086;2023-04-07T00:28:28;7.30;99.90
52415;DHT22;38340;52.964;6.086;2023-04-07T00:30:53;7.30;99.90
52415;DHT22;38340;52.964;6.086;2023-04-07T00:33:19;7.30;99.90
52415;DHT22;38340;52.964;6.086;2023-04-07T00:35:45;7.30;99.90
52415;DHT22;38340;52.964;6.086;2023-04-07T00:38:10;7.20;99.90
52415;DHT22;38340;52.964;6.086;2023-04-07T00:40:36;7.20;99.90
52415;DHT22;38340;52.964;6.086;2023-04-07T00:43:02;7.20;99.90
52415;DHT22;38340;52.964;6.086;2023-04-07T00:45:27;7.20;99.90
52415;DHT22;38340;52.964;6.086;2023-04-07T00:47:54;7.20;99.90
52415;DHT22;38340;52.964;6.086;2023-04-07T00:50:21;7.10;99.90
52415;DHT22;38340;52.964;6.086;2023-04-07T00:52:46;7.20;99.90
52415;DHT22;38340;52.964;6.086;2023-04-07T00:55:12;7.20;99.90
52415;DHT22;38340;52.964;6.086;2023-04-07T00:57:38;7.20;99.90
52415;DHT22;38340;52.964;6.086;2023-04-07T01:00:04;7.20;99.90
52415;DHT22;38340;52.964;6.086;2023-04-07T01:02:47;7.20;99.90
52415;DHT22;38340;52.964;6.086;2023-04-07T01:05:54;7.20;99.90
52415;DHT22;38340;52.964;6.086;2023-04-07T01:08:37;7.20;99.90
52415;DHT22;38340;52.964;6.086;2023-04-07T01:11:19;7.20;99.90
52415;DHT22;38340;52.964;6.086;2023-04-07T01:13:52;7.20;99.90
52415;DHT22;38340;52.964;6.086;2023-04-07T01:16:29;7.20;99.90
52415;DHT22;38340;52.964;6.086;2023-04-07T01:19:08;7.20;99.90
52415;DHT22;38340;52.964;6.086;2023-04-07T01:21:39;7.20;99.90
52415;DHT22;38340;52.964;6.086;2023-04-07T01:26:34;7.30;99.90
52415;DHT22;38340;52.964;6.086;2023-04-07T01:29:41;7.30;99.90
52415;DHT22;38340;52.964;6.086;2023-04-07T01:32:13;7.30;99.90
52415;DHT22;38340;52.964;6.086;2023-04-07T01:34:40;7.30;99.90
52415;DHT22;38340;52.964;6.086;2023-04-07T01:37:06;7.30;99.90
52415;DHT22;38340;52.964;6.086;2023-04-07T01:39:33;7.30;99.90
52415;DHT22;38340;52.964;6.086;2023-04-07T01:42:00;7.30;99.90
52415;DHT22;38340;52.964;6.086;2023-04-07T01:44:28;7.30;99.90
52415;DHT22;38340;52.964;6.086;2023-04-07T01:46:54;7.30;99.90
52415;DHT22;38340;52.964;6.086;2023-04-07T01:49:21;7.30;99.90
52415;DHT22;38340;52.964;6.086;2023-04-07T01:51:48;7.30;99.90
52415;DHT22;38340;52.964;6.086;2023-04-07T01:54:16;7.30;99.90
52415;DHT22;38340;52.964;6.086;2023-04-07T01:56:43;7.30;99.90
52415;DHT22;38340;52.964;6.086;2023-04-07T01:59:09;7.30;99.90
52415;DHT22;38340;52.964;6.086;2023-04-07T02:01:35;7.40;99.90
52415;DHT22;38340;52.964;6.086;2023-04-07T02:04:15;7.40;99.90
52415;DHT22;38340;52.964;6.086;2023-04-07T02:06:57;7.40;99.90
52415;DHT22;38340;52.964;6.086;2023-04-07T02:09:24;7.30;99.90
52415;DHT22;38340;52.964;6.086;2023-04-07T02:11:53;7.40;99.90
52415;DHT22;38340;52.964;6.086;2023-04-07T02:14:20;7.40;99.90
52415;DHT22;38340;52.964;6.086;2023-04-07T02:16:49;7.40;99.90
52415;DHT22;38340;52.964;6.086;2023-04-07T02:19:15;7.40;99.90
52415;DHT22;38340;52.964;6.086;2023-04-07T02:21:41;7.40;99.90
52415;DHT22;38340;52.964;6.086;2023-04-07T02:24:10;7.40;99.90
52415;DHT22;38340;52.964;6.086;2023-04-07T02:26:36;7.40;99.90
52415;DHT22;38340;52.964;6.086;2023-04-07T02:29:03;7.40;99.90
52415;DHT22;38340;52.964;6.086;2023-04-07T02:31:29;7.40;99.90
52415;DHT22;38340;52.964;6.086;2023-04-07T02:33:54;7.40;99.90
52415;DHT22;38340;52.964;6.086;2023-04-07T02:36:20;7.40;99.90
52415;DHT22;38340;52.964;6.086;2023-04-07T02:38:46;7.40;99.90
52415;DHT22;38340;52.964;6.086;2023-04-07T02:41:12;7.40;99.90
52415;DHT22;38340;52.964;6.086;2023-04-07T02:43:37;7.40;99.90
52415;DHT22;38340;52.964;6.086;2023-04-07T02:46:03;7.40;99.90
52415;DHT22;38340;52.964;6.086;2023-04-07T02:48:29;7.40;99.90
52415;DHT22;38340;52.964;6.086;2023-04-07T02:50:54;7.40;99.90
52415;DHT22;38340;52.964;6.086;2023-04-07T02:53:20;7.40;99.90
52415;DHT22;38340;52.964;6.086;2023-04-07T02:55:46;7.40;99.90
52415;DHT22;38340;52.964;6.086;2023-04-07T02:58:11;7.40;99.90
52415;DHT22;38340;52.964;6.086;2023-04-07T03:00:37;7.40;99.90
52415;DHT22;38340;52.964;6.086;2023-04-07T03:03:03;7.40;99.90
52415;DHT22;38340;52.964;6.086;2023-04-07T03:05:29;7.40;99.90
52415;DHT22;38340;52.964;6.086;2023-04-07T03:07:54;7.50;99.90
52415;DHT22;38340;52.964;6.086;2023-04-07T03:10:20;7.40;99.90
52415;DHT22;38340;52.964;6.086;2023-04-07T03:12:46;7.50;99.90
52415;DHT22;38340;52.964;6.086;2023-04-07T03:15:12;7.50;99.90
52415;DHT22;38340;52.964;6.086;2023-04-07T03:17:37;7.50;99.90
52415;DHT22;38340;52.964;6.086;2023-04-07T03:20:03;7.50;99.90
52415;DHT22;38340;52.964;6.086;2023-04-07T03:22:29;7.50;99.90
52415;DHT22;38340;52.964;6.086;2023-04-07T03:24:55;7.50;99.90
52415;DHT22;38340;52.964;6.086;2023-04-07T03:27:20;7.50;99.90
52415;DHT22;38340;52.964;6.086;2023-04-07T03:29:46;7.50;99.90
52415;DHT22;38340;52.964;6.086;2023-04-07T03:32:12;7.50;99.90
52415;DHT22;38340;52.964;6.086;2023-04-07T03:34:37;7.50;99.90
52415;DHT22;38340;52.964;6.086;2023-04-07T03:37:03;7.50;99.90
52415;DHT22;38340;52.964;6.086;2023-04-07T03:39:29;7.60;99.90
52415;DHT22;38340;52.964;6.086;2023-04-07T03:41:56;7.60;99.90
52415;DHT22;38340;52.964;6.086;2023-04-07T03:44:22;7.50;99.90
52415;DHT22;38340;52.964;6.086;2023-04-07T03:46:48;7.60;99.90
52415;DHT22;38340;52.964;6.086;2023-04-07T03:49:15;7.50;99.90
52415;DHT22;38340;52.964;6.086;2023-04-07T03:51:41;7.60;99.90
52415;DHT22;38340;52.964;6.086;2023-04-07T03:54:06;7.60;99.90
52415;DHT22;38340;52.964;6.086;2023-04-07T03:56:32;7.60;99.90
52415;DHT22;38340;52.964;6.086;2023-04-07T03:58:58;7.50;99.90
52415;DHT22;38340;52.964;6.086;2023-04-07T04:01:23;7.50;99.90
52415;DHT22;38340;52.964;6.086;2023-04-07T04:03:49;7.60;99.90
52415;DHT22;38340;52.964;6.086;2023-04-07T04:06:15;7.60;99.90
52415;DHT22;38340;52.964;6.086;2023-04-07T04:08:41;7.60;99.90
52415;DHT22;38340;52.964;6.086;2023-04-07T04:11:07;7.60;99.90
52415;DHT22;38340;52.964;6.086;2023-04-07T04:13:32;7.50;99.90
52415;DHT22;38340;52.964;6.086;2023-04-07T04:15:58;7.50;99.90
52415;DHT22;38340;52.964;6.086;2023-04-07T04:18:24;7.60;99.90
52415;DHT22;38340;52.964;6.086;2023-04-07T04:20:49;7.50;99.90
52415;DHT22;38340;52.964;6.086;2023-04-07T04:23:15;7.50;99.90
52415;DHT22;38340;52.964;6.086;2023-04-07T04:25:41;7.60;99.90
52415;DHT22;38340;52.964;6.086;2023-04-07T04:28:06;7.50;99.90
52415;DHT22;38340;52.964;6.086;2023-04-07T04:30:32;7.50;99.90
52415;DHT22;38340;52.964;6.086;2023-04-07T04:32:58;7.60;99.90
52415;DHT22;38340;52.964;6.086;2023-04-07T04:35:23;7.60;99.90
52415;DHT22;38340;52.964;6.086;2023-04-07T04:37:50;7.50;99.90
52415;DHT22;38340;52.964;6.086;2023-04-07T04:40:16;7.50;99.90
52415;DHT22;38340;52.964;6.086;2023-04-07T04:42:41;7.60;99.90
52415;DHT22;38340;52.964;6.086;2023-04-07T04:45:07;7.50;99.90
52415;DHT22;38340;52.964;6.086;2023-04-07T04:47:33;7.50;99.90
52415;DHT22;38340;52.964;6.086;2023-04-07T04:49:59;7.60;99.90
52415;DHT22;38340;52.964;6.086;2023-04-07T04:52:25;7.60;99.90
52415;DHT22;38340;52.964;6.086;2023-04-07T04:54:52;7.70;99.90
52415;DHT22;38340;52.964;6.086;2023-04-07T04:57:18;7.70;99.90
52415;DHT22;38340;52.964;6.086;2023-04-07T04:59:43;7.70;99.90
52415;DHT22;38340;52.964;6.086;2023-04-07T05:02:09;7.70;99.90
52415;DHT22;38340;52.964;6.086;2023-04-07T05:04:34;7.70;99.90
52415;DHT22;38340;52.964;6.086;2023-04-07T05:07:01;7.60;99.90
52415;DHT22;38340;52.964;6.086;2023-04-07T05:09:26;7.60;99.90
52415;DHT22;38340;52.964;6.086;2023-04-07T05:11:52;7.60;99.90
52415;DHT22;38340;52.964;6.086;2023-04-07T05:14:17;7.60;99.90
52415;DHT22;38340;52.964;6.086;2023-04-07T05:16:43;7.60;99.90
52415;DHT22;38340;52.964;6.086;2023-04-07T05:19:09;7.60;99.90
52415;DHT22;38340;52.964;6.086;2023-04-07T05:21:35;7.60;99.90
52415;DHT22;38340;52.964;6.086;2023-04-07T05:24:00;7.70;99.90
52415;DHT22;38340;52.964;6.086;2023-04-07T05:26:26;7.70;99.90
52415;DHT22;38340;52.964;6.086;2023-04-07T05:28:52;7.80;99.90
52415;DHT22;38340;52.964;6.086;2023-04-07T05:31:18;7.90;99.90
52415;DHT22;38340;52.964;6.086;2023-04-07T05:33:43;8.00;99.90
52415;DHT22;38340;52.964;6.086;2023-04-07T05:36:09;8.10;99.90
52415;DHT22;38340;52.964;6.086;2023-04-07T05:38:35;8.20;99.90
52415;DHT22;38340;52.964;6.086;2023-04-07T05:41:00;8.20;99.90
52415;DHT22;38340;52.964;6.086;2023-04-07T05:43:26;8.20;99.90
52415;DHT22;38340;52.964;6.086;2023-04-07T05:45:52;8.10;99.90
52415;DHT22;38340;52.964;6.086;2023-04-07T05:48:17;8.00;99.90
52415;DHT22;38340;52.964;6.086;2023-04-07T05:50:43;8.00;99.90
52415;DHT22;38340;52.964;6.086;2023-04-07T05:53:09;7.90;99.90
52415;DHT22;38340;52.964;6.086;2023-04-07T05:55:34;7.90;99.90
52415;DHT22;38340;52.964;6.086;2023-04-07T05:58:00;7.80;99.90
52415;DHT22;38340;52.964;6.086;2023-04-07T06:00:26;7.80;99.90
52415;DHT22;38340;52.964;6.086;2023-04-07T06:02:52;7.80;99.90
52415;DHT22;38340;52.964;6.086;2023-04-07T06:05:18;7.80;99.90
52415;DHT22;38340;52.964;6.086;2023-04-07T06:07:44;7.80;99.90
52415;DHT22;38340;52.964;6.086;2023-04-07T06:10:10;7.80;99.90
52415;DHT22;38340;52.964;6.086;2023-04-07T06:12:35;7.80;99.90
52415;DHT22;38340;52.964;6.086;2023-04-07T06:15:01;7.80;99.90
52415;DHT22;38340;52.964;6.086;2023-04-07T06:17:27;7.70;99.90
52415;DHT22;38340;52.964;6.086;2023-04-07T06:19:52;7.70;99.90
52415;DHT22;38340;52.964;6.086;2023-04-07T06:22:18;7.70;99.90
52415;DHT22;38340;52.964;6.086;2023-04-07T06:24:44;7.70;99.90
52415;DHT22;38340;52.964;6.086;2023-04-07T06:27:09;7.70;99.90
52415;DHT22;38340;52.964;6.086;2023-04-07T06:29:36;7.70;99.90
52415;DHT22;38340;52.964;6.086;2023-04-07T06:32:01;7.70;99.90
52415;DHT22;38340;52.964;6.086;2023-04-07T06:34:27;7.70;99.90
52415;DHT22;38340;52.964;6.086;2023-04-07T06:36:53;7.70;99.90
52415;DHT22;38340;52.964;6.086;2023-04-07T06:39:18;7.70;99.90
52415;DHT22;38340;52.964;6.086;2023-04-07T06:41:44;7.70;99.90
52415;DHT22;38340;52.964;6.086;2023-04-07T06:44:11;7.80;99.90
52415;DHT22;38340;52.964;6.086;2023-04-07T06:46:37;7.90;99.90
52415;DHT22;38340;52.964;6.086;2023-04-07T06:49:03;7.90;99.90
52415;DHT22;38340;52.964;6.086;2023-04-07T06:51:29;8.00;99.90
52415;DHT22;38340;52.964;6.086;2023-04-07T06:53:56;8.00;99.90
52415;DHT22;38340;52.964;6.086;2023-04-07T06:56:22;8.10;99.90
52415;DHT22;38340;52.964;6.086;2023-04-07T06:58:48;8.10;99.90
52415;DHT22;38340;52.964;6.086;2023-04-07T07:01:14;8.10;99.90
52415;DHT22;38340;52.964;6.086;2023-04-07T07:03:40;8.10;99.90
52415;DHT22;38340;52.964;6.086;2023-04-07T07:06:06;8.10;99.90
52415;DHT22;38340;52.964;6.086;2023-04-07T07:08:31;8.10;99.90
52415;DHT22;38340;52.964;6.086;2023-04-07T07:10:57;8.20;99.90
52415;DHT22;38340;52.964;6.086;2023-04-07T07:13:25;8.20;99.90
52415;DHT22;38340;52.964;6.086;2023-04-07T07:15:51;8.30;99.90
52415;DHT22;38340;52.964;6.086;2023-04-07T07:18:17;8.30;99.90
52415;DHT22;38340;52.964;6.086;2023-04-07T07:20:43;8.30;99.90
52415;DHT22;38340;52.964;6.086;2023-04-07T07:23:09;8.30;99.90
52415;DHT22;38340;52.964;6.086;2023-04-07T07:25:35;8.40;99.90
52415;DHT22;38340;52.964;6.086;2023-04-07T07:28:01;8.40;99.90
52415;DHT22;38340;52.964;6.086;2023-04-07T07:30:26;8.50;99.90
52415;DHT22;38340;52.964;6.086;2023-04-07T07:32:53;8.50;99.90
52415;DHT22;38340;52.964;6.086;2023-04-07T07:35:20;8.60;99.90
52415;DHT22;38340;52.964;6.086;2023-04-07T07:37:45;8.60;99.90
52415;DHT22;38340;52.964;6.086;2023-04-07T07:40:12;8.60;99.90
52415;DHT22;38340;52.964;6.086;2023-04-07T07:42:38;8.50;99.90
52415;DHT22;38340;52.964;6.086;2023-04-07T07:45:04;8.60;99.90
52415;DHT22;38340;52.964;6.086;2023-04-07T07:47:30;8.60;99.90
52415;DHT22;38340;52.964;6.086;2023-04-07T07:49:56;8.60;99.90
52415;DHT22;38340;52.964;6.086;2023-04-07T07:52:22;8.60;99.90
52415;DHT22;38340;52.964;6.086;2023-04-07T07:54:48;8.60;99.90
52415;DHT22;38340;52.964;6.086;2023-04-07T07:57:14;8.60;99.90
52415;DHT22;38340;52.964;6.086;2023-04-07T07:59:40;8.60;99.90
52415;DHT22;38340;52.964;6.086;2023-04-07T08:02:06;8.60;99.90
52415;DHT22;38340;52.964;6.086;2023-04-07T08:04:33;8.60;99.90
52415;DHT22;38340;52.964;6.086;2023-04-07T08:06:59;8.60;99.90
52415;DHT22;38340;52.964;6.086;2023-04-07T08:09:25;8.60;99.90
52415;DHT22;38340;52.964;6.086;2023-04-07T08:11:50;8.60;99.90
52415;DHT22;38340;52.964;6.086;2023-04-07T08:14:16;8.60;99.90
52415;DHT22;38340;52.964;6.086;2023-04-07T08:16:43;8.60;99.90
52415;DHT22;38340;52.964;6.086;2023-04-07T08:19:09;8.50;99.90
52415;DHT22;38340;52.964;6.086;2023-04-07T08:21:34;8.50;99.90
52415;DHT22;38340;52.964;6.086;2023-04-07T08:24:00;8.50;99.90
52415;DHT22;38340;52.964;6.086;2023-04-07T08:26:26;8.40;99.90
52415;DHT22;38340;52.964;6.086;2023-04-07T08:28:52;8.40;99.90
52415;DHT22;38340;52.964;6.086;2023-04-07T08:31:18;8.40;99.90
52415;DHT22;38340;52.964;6.086;2023-04-07T08:33:44;8.30;99.90
52415;DHT22;38340;52.964;6.086;2023-04-07T08:36:10;8.40;99.90
52415;DHT22;38340;52.964;6.086;2023-04-07T08:38:36;8.50;99.90
52415;DHT22;38340;52.964;6.086;2023-04-07T08:41:12;8.50;99.90
52415;DHT22;38340;52.964;6.086;2023-04-07T08:43:39;8.60;99.90
52415;DHT22;38340;52.964;6.086;2023-04-07T08:46:08;8.70;99.90
52415;DHT22;38340;52.964;6.086;2023-04-07T08:48:34;8.80;99.90
52415;DHT22;38340;52.964;6.086;2023-04-07T08:51:06;8.90;99.90
52415;DHT22;38340;52.964;6.086;2023-04-07T08:53:40;9.00;99.90
52415;DHT22;38340;52.964;6.086;2023-04-07T08:56:10;9.10;99.90
52415;DHT22;38340;52.964;6.086;2023-04-07T08:58:36;9.20;99.90
52415;DHT22;38340;52.964;6.086;2023-04-07T09:01:04;9.30;99.90
52415;DHT22;38340;52.964;6.086;2023-04-07T09:03:32;9.30;99.90
52415;DHT22;38340;52.964;6.086;2023-04-07T09:05:59;9.30;99.90
52415;DHT22;38340;52.964;6.086;2023-04-07T09:08:25;9.40;99.90
52415;DHT22;38340;52.964;6.086;2023-04-07T09:10:51;9.40;99.90
52415;DHT22;38340;52.964;6.086;2023-04-07T09:13:17;9.50;99.90
52415;DHT22;38340;52.964;6.086;2023-04-07T09:15:43;9.60;99.90
52415;DHT22;38340;52.964;6.086;2023-04-07T09:18:09;9.60;99.90
52415;DHT22;38340;52.964;6.086;2023-04-07T09:20:57;9.60;99.90
52415;DHT22;38340;52.964;6.086;2023-04-07T09:23:31;9.60;99.90
52415;DHT22;38340;52.964;6.086;2023-04-07T09:25:59;9.60;99.90
52415;DHT22;38340;52.964;6.086;2023-04-07T09:28:39;9.60;99.90
52415;DHT22;38340;52.964;6.086;2023-04-07T09:31:05;9.70;99.90
52415;DHT22;38340;52.964;6.086;2023-04-07T09:33:32;9.80;99.90
52415;DHT22;38340;52.964;6.086;2023-04-07T09:35:58;9.80;99.90
52415;DHT22;38340;52.964;6.086;2023-04-07T09:38:35;9.80;99.90
52415;DHT22;38340;52.964;6.086;2023-04-07T09:41:12;9.80;99.90
52415;DHT22;38340;52.964;6.086;2023-04-07T09:43:40;9.80;99.90
52415;DHT22;38340;52.964;6.086;2023-04-07T09:46:16;9.80;99.90
52415;DHT22;38340;52.964;6.086;2023-04-07T09:48:44;9.80;99.90
52415;DHT22;38340;52.964;6.086;2023-04-07T09:51:14;9.90;99.90
52415;DHT22;38340;52.964;6.086;2023-04-07T09:53:50;10.10;99.90
52415;DHT22;38340;52.964;6.086;2023-04-07T09:56:20;10.30;99.90
52415;DHT22;38340;52.964;6.086;2023-04-07T09:58:49;10.40;99.90
52415;DHT22;38340;52.964;6.086;2023-04-07T10:01:19;10.60;99.90
52415;DHT22;38340;52.964;6.086;2023-04-07T10:03:45;10.80;99.90
52415;DHT22;38340;52.964;6.086;2023-04-07T10:06:12;10.80;99.90
52415;DHT22;38340;52.964;6.086;2023-04-07T10:08:39;10.90;99.90
52415;DHT22;38340;52.964;6.086;2023-04-07T10:11:06;11.10;99.90
52415;DHT22;38340;52.964;6.086;2023-04-07T10:13:34;11.20;99.90
52415;DHT22;38340;52.964;6.086;2023-04-07T10:16:04;11.20;99.90
52415;DHT22;38340;52.964;6.086;2023-04-07T10:18:32;11.30;99.90
52415;DHT22;38340;52.964;6.086;2023-04-07T10:21:03;11.30;99.90
52415;DHT22;38340;52.964;6.086;2023-04-07T10:26:31;11.20;99.90
52415;DHT22;38340;52.964;6.086;2023-04-07T10:29:03;11.10;99.90
52415;DHT22;38340;52.964;6.086;2023-04-07T10:31:30;11.10;99.90
52415;DHT22;38340;52.964;6.086;2023-04-07T10:33:56;11.00;99.90
52415;DHT22;38340;52.964;6.086;2023-04-07T10:36:22;11.00;99.90
52415;DHT22;38340;52.964;6.086;2023-04-07T10:41:36;10.90;99.90
52415;DHT22;38340;52.964;6.086;2023-04-07T10:44:06;10.90;99.90
52415;DHT22;38340;52.964;6.086;2023-04-07T10:49:11;11.00;99.90
52415;DHT22;38340;52.964;6.086;2023-04-07T10:51:38;11.10;99.90
52415;DHT22;38340;52.964;6.086;2023-04-07T10:54:20;11.20;99.90
52415;DHT22;38340;52.964;6.086;2023-04-07T10:59:28;11.30;99.90
52415;DHT22;38340;52.964;6.086;2023-04-07T11:04:40;11.40;99.90
52415;DHT22;38340;52.964;6.086;2023-04-07T11:07:07;11.40;99.90
52415;DHT22;38340;52.964;6.086;2023-04-07T11:09:33;11.50;99.90
52415;DHT22;38340;52.964;6.086;2023-04-07T11:11:59;11.60;99.90
52415;DHT22;38340;52.964;6.086;2023-04-07T11:14:26;11.60;99.90
52415;DHT22;38340;52.964;6.086;2023-04-07T11:16:52;11.60;99.90
52415;DHT22;38340;52.964;6.086;2023-04-07T11:19:18;11.60;99.90
52415;DHT22;38340;52.964;6.086;2023-04-07T11:21:44;11.60;99.90
52415;DHT22;38340;52.964;6.086;2023-04-07T11:24:09;11.70;99.90
52415;DHT22;38340;52.964;6.086;2023-04-07T11:26:41;11.80;99.90
52415;DHT22;38340;52.964;6.086;2023-04-07T11:29:08;11.90;99.90
52415;DHT22;38340;52.964;6.086;2023-04-07T11:31:37;11.90;99.90
52415;DHT22;38340;52.964;6.086;2023-04-07T11:34:04;12.00;99.90
52415;DHT22;38340;52.964;6.086;2023-04-07T11:36:47;12.10;99.90
52415;DHT22;38340;52.964;6.086;2023-04-07T11:39:18;12.10;99.90
52415;DHT22;38340;52.964;6.086;2023-04-07T11:41:48;12.20;99.90
52415;DHT22;38340;52.964;6.086;2023-04-07T11:44:14;12.10;99.90
52415;DHT22;38340;52.964;6.086;2023-04-07T11:47:00;12.10;99.90
52415;DHT22;38340;52.964;6.086;2023-04-07T11:49:28;12.10;99.90
52415;DHT22;38340;52.964;6.086;2023-04-07T11:52:04;12.10;99.90
52415;DHT22;38340;52.964;6.086;2023-04-07T11:54:45;12.30;99.90
52415;DHT22;38340;52.964;6.086;2023-04-07T11:57:12;12.30;99.90
52415;DHT22;38340;52.964;6.086;2023-04-07T11:59:40;12.30;99.90
52415;DHT22;38340;52.964;6.086;2023-04-07T12:02:06;12.30;99.90
52415;DHT22;38340;52.964;6.086;2023-04-07T12:04:32;12.30;99.90
52415;DHT22;38340;52.964;6.086;2023-04-07T12:07:08;12.20;99.90
52415;DHT22;38340;52.964;6.086;2023-04-07T12:09:35;12.10;99.90
52415;DHT22;38340;52.964;6.086;2023-04-07T12:12:03;12.20;99.90
52415;DHT22;38340;52.964;6.086;2023-04-07T12:14:31;12.20;99.90
52415;DHT22;38340;52.964;6.086;2023-04-07T12:16:57;12.20;99.90
52415;DHT22;38340;52.964;6.086;2023-04-07T12:19:27;12.20;99.90
52415;DHT22;38340;52.964;6.086;2023-04-07T12:21:54;12.30;99.90
52415;DHT22;38340;52.964;6.086;2023-04-07T12:24:21;12.30;99.90
52415;DHT22;38340;52.964;6.086;2023-04-07T12:26:47;12.30;99.90
52415;DHT22;38340;52.964;6.086;2023-04-07T12:29:12;12.30;99.90
52415;DHT22;38340;52.964;6.086;2023-04-07T12:31:38;12.20;99.90
52415;DHT22;38340;52.964;6.086;2023-04-07T12:34:04;12.10;99.90
52415;DHT22;38340;52.964;6.086;2023-04-07T12:36:30;12.20;99.90
52415;DHT22;38340;52.964;6.086;2023-04-07T12:38:56;12.30;99.90
52415;DHT22;38340;52.964;6.086;2023-04-07T12:41:24;12.30;99.90
52415;DHT22;38340;52.964;6.086;2023-04-07T12:43:50;12.30;99.90
52415;DHT22;38340;52.964;6.086;2023-04-07T12:46:15;12.30;99.90
52415;DHT22;38340;52.964;6.086;2023-04-07T12:48:41;12.20;99.90
52415;DHT22;38340;52.964;6.086;2023-04-07T12:51:07;12.10;99.90
52415;DHT22;38340;52.964;6.086;2023-04-07T12:53:33;12.00;99.90
52415;DHT22;38340;52.964;6.086;2023-04-07T12:55:58;11.90;99.90
52415;DHT22;38340;52.964;6.086;2023-04-07T12:58:24;11.80;99.90
52415;DHT22;38340;52.964;6.086;2023-04-07T13:00:51;11.70;99.90
52415;DHT22;38340;52.964;6.086;2023-04-07T13:03:18;11.60;99.90
52415;DHT22;38340;52.964;6.086;2023-04-07T13:05:44;11.50;99.90
52415;DHT22;38340;52.964;6.086;2023-04-07T13:08:09;11.50;99.90
52415;DHT22;38340;52.964;6.086;2023-04-07T13:10:35;11.50;99.90
52415;DHT22;38340;52.964;6.086;2023-04-07T13:13:01;11.50;99.90
52415;DHT22;38340;52.964;6.086;2023-04-07T13:15:27;11.50;99.90
52415;DHT22;38340;52.964;6.086;2023-04-07T13:17:53;11.60;99.90
52415;DHT22;38340;52.964;6.086;2023-04-07T13:20:19;11.60;99.90
52415;DHT22;38340;52.964;6.086;2023-04-07T13:22:45;11.60;99.90
52415;DHT22;38340;52.964;6.086;2023-04-07T13:25:12;11.50;99.90
52415;DHT22;38340;52.964;6.086;2023-04-07T13:27:37;11.50;99.90
52415;DHT22;38340;52.964;6.086;2023-04-07T13:30:04;11.40;99.90
52415;DHT22;38340;52.964;6.086;2023-04-07T13:32:30;11.40;99.90
52415;DHT22;38340;52.964;6.086;2023-04-07T13:34:56;11.30;99.90
52415;DHT22;38340;52.964;6.086;2023-04-07T13:37:22;11.30;99.90
52415;DHT22;38340;52.964;6.086;2023-04-07T13:39:47;11.40;99.90
52415;DHT22;38340;52.964;6.086;2023-04-07T13:42:13;11.40;99.90
52415;DHT22;38340;52.964;6.086;2023-04-07T13:44:43;11.50;99.90
52415;DHT22;38340;52.964;6.086;2023-04-07T13:47:13;11.60;99.90
52415;DHT22;38340;52.964;6.086;2023-04-07T13:49:47;11.70;99.90
52415;DHT22;38340;52.964;6.086;2023-04-07T13:52:14;11.80;99.90
52415;DHT22;38340;52.964;6.086;2023-04-07T13:54:40;11.90;99.90
52415;DHT22;38340;52.964;6.086;2023-04-07T13:57:06;12.00;99.90
52415;DHT22;38340;52.964;6.086;2023-04-07T13:59:32;12.00;99.90
52415;DHT22;38340;52.964;6.086;2023-04-07T14:01:58;12.00;99.90
52415;DHT22;38340;52.964;6.086;2023-04-07T14:04:24;12.00;99.90
52415;DHT22;38340;52.964;6.086;2023-04-07T14:06:50;12.00;99.90
52415;DHT22;38340;52.964;6.086;2023-04-07T14:09:15;12.00;99.90
52415;DHT22;38340;52.964;6.086;2023-04-07T14:11:41;12.10;99.90
52415;DHT22;38340;52.964;6.086;2023-04-07T14:14:07;12.10;99.90
52415;DHT22;38340;52.964;6.086;2023-04-07T14:16:32;12.10;99.90
52415;DHT22;38340;52.964;6.086;2023-04-07T14:18:58;12.10;99.90
52415;DHT22;38340;52.964;6.086;2023-04-07T14:21:24;12.10;99.90
52415;DHT22;38340;52.964;6.086;2023-04-07T14:23:52;12.10;99.90
52415;DHT22;38340;52.964;6.086;2023-04-07T14:26:17;12.10;99.90
52415;DHT22;38340;52.964;6.086;2023-04-07T14:28:43;12.10;99.90
52415;DHT22;38340;52.964;6.086;2023-04-07T14:31:13;12.20;99.90
52415;DHT22;38340;52.964;6.086;2023-04-07T14:33:41;12.20;99.90
52415;DHT22;38340;52.964;6.086;2023-04-07T14:36:07;12.20;99.90
52415;DHT22;38340;52.964;6.086;2023-04-07T14:38:32;12.30;99.90
52415;DHT22;38340;52.964;6.086;2023-04-07T14:40:58;12.30;99.90
52415;DHT22;38340;52.964;6.086;2023-04-07T14:43:24;12.20;99.90
52415;DHT22;38340;52.964;6.086;2023-04-07T14:45:49;12.20;99.90
52415;DHT22;38340;52.964;6.086;2023-04-07T14:48:15;12.10;99.90
52415;DHT22;38340;52.964;6.086;2023-04-07T14:50:41;12.00;99.90
52415;DHT22;38340;52.964;6.086;2023-04-07T14:53:07;12.00;99.90
52415;DHT22;38340;52.964;6.086;2023-04-07T14:55:33;12.00;99.90
52415;DHT22;38340;52.964;6.086;2023-04-07T14:57:59;12.00;99.90
52415;DHT22;38340;52.964;6.086;2023-04-07T15:00:24;11.90;99.90
52415;DHT22;38340;52.964;6.086;2023-04-07T15:02:51;11.90;99.90
52415;DHT22;38340;52.964;6.086;2023-04-07T15:05:20;11.90;99.90
52415;DHT22;38340;52.964;6.086;2023-04-07T15:07:50;11.80;99.90
52415;DHT22;38340;52.964;6.086;2023-04-07T15:10:17;11.80;99.90
52415;DHT22;38340;52.964;6.086;2023-04-07T15:12:43;11.80;99.90
52415;DHT22;38340;52.964;6.086;2023-04-07T15:15:12;11.80;99.90
52415;DHT22;38340;52.964;6.086;2023-04-07T15:17:37;11.80;99.90
52415;DHT22;38340;52.964;6.086;2023-04-07T15:20:03;11.80;99.90
52415;DHT22;38340;52.964;6.086;2023-04-07T15:22:29;11.80;99.90
52415;DHT22;38340;52.964;6.086;2023-04-07T15:24:55;11.80;99.90
52415;DHT22;38340;52.964;6.086;2023-04-07T15:27:21;11.90;99.90
52415;DHT22;38340;52.964;6.086;2023-04-07T15:29:46;11.80;99.90
52415;DHT22;38340;52.964;6.086;2023-04-07T15:32:12;11.80;99.90
52415;DHT22;38340;52.964;6.086;2023-04-07T15:34:38;11.80;99.90
52415;DHT22;38340;52.964;6.086;2023-04-07T15:37:03;11.80;99.90
52415;DHT22;38340;52.964;6.086;2023-04-07T15:39:29;11.80;99.90
52415;DHT22;38340;52.964;6.086;2023-04-07T15:41:55;11.80;99.90
52415;DHT22;38340;52.964;6.086;2023-04-07T15:44:21;11.80;99.90
52415;DHT22;38340;52.964;6.086;2023-04-07T15:46:47;11.80;99.90
52415;DHT22;38340;52.964;6.086;2023-04-07T15:49:13;11.80;99.90
52415;DHT22;38340;52.964;6.086;2023-04-07T15:51:47;11.90;99.90
52415;DHT22;38340;52.964;6.086;2023-04-07T15:54:13;11.90;99.90
52415;DHT22;38340;52.964;6.086;2023-04-07T15:56:38;11.90;99.90